Time;durP1;ratioP1;P1;durP2;ratioP2;P2;SDS_P1;SDS_P2;PMS_P1;PMS_P2;Temp;Humidity;BMP_temperature;BMP_pressure;BME280_temperature;BME280_humidity;BME280_pressure;Samples;Min_cycle;Max_cycle;Signal;HPM_P1;HPM_P2
2022/11/18 00:02:03;;;;;;;30.15;20.05;;;;;;;1.85;95.85;99652.00;7397009;19;20011;-68
2022/11/18 00:04:34;;;;;;;27.70;19.40;;;;;;;1.83;95.70;99645.94;7396765;19;20035;-68
2022/11/18 00:07:02;;;;;;;30.90;20.23;;;;;;;1.82;96.09;99655.44;7398848;19;20022;-69
2022/11/18 00:09:31;;;;;;;33.78;21.83;;;;;;;1.85;96.15;99644.22;7398271;19;20018;-68
2022/11/18 00:14:40;;;;;;;30.67;20.75;;;;;;;1.84;95.98;99658.88;7396805;19;20015;-68
2022/11/18 00:17:09;;;;;;;29.88;20.98;;;;;;;1.83;95.96;99659.72;7398354;19;20011;-69
2022/11/18 00:19:42;;;;;;;30.33;20.67;;;;;;;1.84;95.96;99653.69;7395931;19;20388;-69
2022/11/18 00:22:14;;;;;;;29.85;20.73;;;;;;;1.82;95.94;99649.41;7396124;19;20485;-69
2022/11/18 00:24:43;;;;;;;31.77;21.05;;;;;;;1.83;95.84;99656.28;7393681;19;20019;-68
2022/11/18 00:27:11;;;;;;;30.88;20.88;;;;;;;1.83;95.95;99657.16;7396135;19;20042;-69
2022/11/18 00:29:40;;;;;;;28.75;19.65;;;;;;;1.81;95.82;99648.56;7398492;19;20362;-69
2022/11/18 00:32:08;;;;;;;29.67;19.13;;;;;;;1.82;95.71;99650.28;7397477;19;20027;-69
2022/11/18 00:34:37;;;;;;;29.83;19.52;;;;;;;1.83;95.96;99656.28;7396238;19;20014;-68
2022/11/18 00:37:08;;;;;;;31.48;20.60;;;;;;;1.82;95.76;99655.44;7395814;19;20015;-69
2022/11/18 00:39:36;;;;;;;27.95;19.58;;;;;;;1.82;95.61;99657.16;7395698;19;20015;-68
2022/11/18 00:44:46;;;;;;;28.05;18.48;;;;;;;1.80;95.63;99664.94;7393274;19;20006;-69
2022/11/18 00:47:14;;;;;;;31.33;20.33;;;;;;;1.81;95.43;99668.38;7395497;19;20018;-68
2022/11/18 00:49:43;;;;;;;29.92;19.95;;;;;;;1.81;95.69;99669.25;7395264;19;20458;-68
2022/11/18 00:52:14;;;;;;;27.17;19.08;;;;;;;1.81;95.44;99668.38;7395041;19;20022;-68
2022/11/18 00:54:42;;;;;;;29.90;19.27;;;;;;;1.81;95.18;99678.72;7395035;19;20379;-68
2022/11/18 00:57:11;;;;;;;29.33;19.98;;;;;;;1.81;95.16;99679.59;7394935;19;20513;-68
2022/11/18 00:59:39;;;;;;;27.77;18.98;;;;;;;1.82;95.51;99670.09;7396970;19;20014;-69
2022/11/18 01:02:07;;;;;;;29.90;19.80;;;;;;;1.83;95.21;99667.50;7395456;19;20063;-69
2022/11/18 01:04:36;;;;;;;29.45;20.05;;;;;;;1.83;95.30;99669.22;7394973;19;20018;-68
2022/11/18 01:07:05;;;;;;;32.63;22.00;;;;;;;1.84;95.12;99669.22;7394997;19;20026;-69
2022/11/18 01:09:36;;;;;;;29.52;21.17;;;;;;;1.83;94.84;99666.63;7394948;19;20078;-69
2022/11/18 01:14:46;;;;;;;33.15;22.40;;;;;;;1.84;95.09;99670.97;7395097;19;20017;-69
2022/11/18 01:17:15;;;;;;;31.92;21.35;;;;;;;1.83;94.98;99670.06;7396414;19;20022;-69
2022/11/18 01:19:43;;;;;;;34.50;22.40;;;;;;;1.86;95.22;99674.38;7396289;19;20031;-69
2022/11/18 01:22:12;;;;;;;34.85;22.63;;;;;;;1.85;95.23;99683.88;7395021;19;20014;-69
2022/11/18 01:24:43;;;;;;;34.83;22.95;;;;;;;1.82;94.57;99681.31;7394719;19;20019;-69
2022/11/18 01:27:11;;;;;;;32.40;21.77;;;;;;;1.81;94.85;99681.28;7396235;19;20035;-69
2022/11/18 01:29:40;;;;;;;32.67;23.10;;;;;;;1.80;94.95;99680.44;7396095;19;20022;-69
2022/11/18 01:32:08;;;;;;;32.53;22.80;;;;;;;1.79;94.82;99670.97;7395949;19;20018;-69
2022/11/18 01:34:37;;;;;;;35.10;23.38;;;;;;;1.78;94.75;99669.22;7393700;19;20436;-69
2022/11/18 01:37:05;;;;;;;40.35;24.42;;;;;;;1.79;94.79;99673.53;7395209;19;20032;-69
2022/11/18 01:39:34;;;;;;;39.05;25.00;;;;;;;1.77;94.79;99673.56;7393403;19;20011;-69
2022/11/18 01:42:05;;;;;;;36.38;24.25;;;;;;;1.77;94.29;99670.13;7394180;19;20485;-69
2022/11/18 01:45:03;;;;;;;35.45;24.90;;;;;;;1.74;94.25;99670.13;7394310;19;20019;-69
2022/11/18 01:47:37;;;;;;;38.45;24.60;;;;;;;1.72;94.36;99675.31;7395939;19;20019;-69
2022/11/18 01:50:08;;;;;;;40.63;25.63;;;;;;;1.72;94.61;99669.25;7395982;19;20426;-69
2022/11/18 01:52:37;;;;;;;37.70;24.83;;;;;;;1.65;94.62;99665.81;7393299;19;20018;-69
2022/11/18 01:55:12;;;;;;;39.42;25.98;;;;;;;1.68;94.46;99672.72;7393707;19;20031;-69
2022/11/18 01:57:43;;;;;;;38.60;25.42;;;;;;;1.64;94.07;99679.63;7393193;19;20112;-69
2022/11/18 02:00:14;;;;;;;39.75;26.67;;;;;;;1.61;93.91;99682.22;7394905;19;20358;-69
2022/11/18 02:02:43;;;;;;;44.67;29.10;;;;;;;1.58;94.34;99677.91;7392954;19;20488;-69
2022/11/18 02:05:13;;;;;;;42.38;28.27;;;;;;;1.55;94.31;99677.06;7393315;19;20026;-69
2022/11/18 02:07:44;;;;;;;44.47;28.45;;;;;;;1.57;94.20;99680.50;7394917;19;20018;-69
2022/11/18 02:10:21;;;;;;;43.72;28.30;;;;;;;1.51;93.61;99675.34;7393786;19;20014;-70
2022/11/18 02:12:54;;;;;;;41.90;27.90;;;;;;;1.46;93.45;99672.75;7397293;19;20014;-68
2022/11/18 02:15:32;;;;;;;47.72;29.92;;;;;;;1.45;94.03;99677.09;7398749;19;20027;-69
2022/11/18 02:18:08;;;;;;;46.03;30.77;;;;;;;1.44;93.69;99674.47;7394783;19;20022;-69
2022/11/18 02:20:41;;;;;;;48.95;30.27;;;;;;;1.42;93.99;99682.25;7395014;19;20419;-69
2022/11/18 02:23:51;;;;;;;49.25;29.88;;;;;;;1.41;94.17;99697.75;7392977;19;20028;-69
2022/11/18 02:26:52;;;;;;;45.15;28.77;;;;;;;1.37;93.53;99696.91;7394626;19;20034;-69
2022/11/18 02:29:28;;;;;;;47.85;30.00;;;;;;;1.34;93.70;99689.16;7394431;19;20018;-69
2022/11/18 02:32:02;;;;;;;47.83;29.95;;;;;;;1.33;93.89;99691.72;7394841;19;20017;-69
2022/11/18 02:34:40;;;;;;;46.40;31.67;;;;;;;1.31;93.76;99696.91;7392347;19;20498;-69
2022/11/18 02:37:16;;;;;;;49.97;30.77;;;;;;;1.29;93.70;99694.31;7394605;19;20026;-69
2022/11/18 02:39:49;;;;;;;49.88;30.73;;;;;;;1.28;93.84;99695.19;7392416;19;20027;-69
2022/11/18 02:42:18;;;;;;;48.97;30.77;;;;;;;1.28;94.07;99695.19;7391701;19;20467;-69
2022/11/18 02:44:56;;;;;;;47.42;29.67;;;;;;;1.27;93.33;99697.78;7391718;19;20035;-69
2022/11/18 02:47:28;;;;;;;47.65;31.10;;;;;;;1.25;93.25;99697.78;7395116;19;20014;-69
2022/11/18 02:50:02;;;;;;;49.00;31.42;;;;;;;1.24;93.49;99697.75;7400992;19;20014;-69
2022/11/18 02:52:33;;;;;;;47.47;30.10;;;;;;;1.20;93.46;99696.94;7401303;19;20022;-69
2022/11/18 02:55:04;;;;;;;48.50;31.60;;;;;;;1.21;93.10;99693.47;7398065;19;20035;-68
2022/11/18 02:57:35;;;;;;;52.75;31.95;;;;;;;1.20;93.44;99696.03;7401483;19;20022;-69
2022/11/18 03:00:07;;;;;;;49.65;31.65;;;;;;;1.16;93.04;99691.75;7400634;19;20017;-69
2022/11/18 03:02:43;;;;;;;53.58;32.72;;;;;;;1.13;93.16;99698.63;7398836;19;20027;-69
2022/11/18 03:05:18;;;;;;;53.90;32.95;;;;;;;1.12;93.04;99699.47;7401249;19;20013;-68
2022/11/18 03:07:52;;;;;;;54.55;33.75;;;;;;;1.12;93.39;99693.47;7398207;19;20369;-68
2022/11/18 03:10:23;;;;;;;52.80;33.73;;;;;;;1.12;93.62;99698.63;7400798;19;20022;-68
2022/11/18 03:13:02;;;;;;;49.38;31.13;;;;;;;1.11;93.59;99696.91;7399857;19;20382;-69
2022/11/18 03:15:39;;;;;;;52.45;31.58;;;;;;;1.09;93.57;99694.34;7400804;19;20027;-68
2022/11/18 03:18:18;;;;;;;52.70;32.42;;;;;;;1.04;93.48;99696.06;7401080;19;20022;-69
2022/11/18 03:20:52;;;;;;;52.65;32.45;;;;;;;1.07;93.58;99703.78;7402087;19;20014;-69
2022/11/18 03:23:29;;;;;;;54.88;32.70;;;;;;;1.06;93.72;99704.69;7400074;19;20018;-70
2022/11/18 03:26:03;;;;;;;58.17;33.75;;;;;;;1.08;93.78;99712.41;7400807;19;20011;-69
2022/11/18 03:28:35;;;;;;;;;;;;;;;1.04;93.29;99705.53;7401271;19;20023;-68
2022/11/18 03:31:12;;;;;;;53.13;31.70;;;;;;;1.02;93.50;99709.84;7400260;19;19987;-69
2022/11/18 03:33:46;;;;;;;58.13;32.70;;;;;;;0.98;93.46;99708.97;7397572;19;20039;-68
2022/11/18 03:36:17;;;;;;;53.60;32.17;;;;;;;0.98;93.39;99719.28;7397020;19;20423;-69
2022/11/18 03:38:50;;;;;;;53.60;32.38;;;;;;;0.95;93.58;99703.81;7398366;19;20432;-68
2022/11/18 03:41:20;;;;;;;59.30;33.53;;;;;;;0.94;93.56;99709.84;7397558;19;20014;-69
2022/11/18 03:43:54;;;;;;;57.70;31.20;;;;;;;0.91;93.47;99709.81;7398602;19;20035;-69
2022/11/18 03:46:30;;;;;;;55.88;32.88;;;;;;;0.90;93.59;99713.28;7399917;19;20032;-69
2022/11/18 03:49:01;;;;;;;57.35;32.42;;;;;;;0.90;93.53;99716.72;7397610;19;20035;-68
2022/11/18 03:51:37;;;;;;;57.38;33.75;;;;;;;0.89;93.93;99721.88;7399666;19;20031;-69
2022/11/18 03:54:12;;;;;;;55.72;33.47;;;;;;;0.89;93.75;99727.03;7397430;19;20485;-69
2022/11/18 03:56:44;;;;;;;56.03;33.05;;;;;;;0.89;94.02;99733.06;7399363;19;20027;-69
2022/11/18 03:59:18;;;;;;;56.03;33.72;;;;;;;0.90;93.74;99728.78;7398842;19;20031;-69
2022/11/18 04:01:56;;;;;;;56.15;35.13;;;;;;;0.89;93.60;99737.38;7398029;19;20561;-69
2022/11/18 04:04:28;;;;;;;55.35;32.40;;;;;;;0.86;93.43;99733.06;7397145;19;20031;-69
2022/11/18 04:07:05;;;;;;;55.42;32.58;;;;;;;0.86;93.49;99743.41;7398863;19;20035;-69
2022/11/18 04:09:40;;;;;;;57.70;33.30;;;;;;;0.85;93.53;99743.38;7398125;19;20015;-69
2022/11/18 04:12:12;;;;;;;56.92;34.50;;;;;;;0.84;93.68;99746.84;7396657;19;20031;-69
2022/11/18 04:14:44;;;;;;;53.65;32.47;;;;;;;0.83;93.82;99750.28;7396221;19;20014;-68
2022/11/18 04:17:16;;;;;;;58.33;33.85;;;;;;;0.82;93.93;99754.56;7398546;19;20022;-68
2022/11/18 04:19:45;;;;;;;56.38;32.75;;;;;;;0.83;93.66;99755.44;7398023;19;20481;-68
2022/11/18 04:22:14;;;;;;;60.33;33.90;;;;;;;0.81;93.89;99761.44;7397443;19;20031;-69
2022/11/18 04:24:42;;;;;;;55.63;33.90;;;;;;;0.80;93.62;99762.31;7395897;19;20367;-69
2022/11/18 04:27:11;;;;;;;55.38;33.38;;;;;;;0.78;93.60;99756.28;7395574;19;20082;-68
2022/11/18 04:29:39;;;;;;;54.92;33.75;;;;;;;0.78;93.61;99763.16;7397607;19;20018;-69
2022/11/18 04:32:08;;;;;;;53.90;31.75;;;;;;;0.74;93.79;99767.44;7395823;19;20031;-68
2022/11/18 04:34:39;;;;;;;53.10;30.33;;;;;;;0.74;93.26;99764.03;7396300;19;20078;-68
2022/11/18 04:37:07;;;;;;;49.88;29.42;;;;;;;0.72;93.28;99778.63;7397451;19;20035;-69
2022/11/18 04:39:36;;;;;;;51.58;30.73;;;;;;;0.69;93.05;99776.91;7395025;19;20030;-68
2022/11/18 04:42:04;;;;;;;53.50;31.25;;;;;;;0.66;93.14;99774.34;7396719;19;20026;-69
2022/11/18 04:44:34;;;;;;;49.28;30.00;;;;;;;0.66;93.43;99776.91;7395734;19;20018;-68
2022/11/18 04:47:05;;;;;;;49.75;29.08;;;;;;;0.67;93.44;99782.94;7397409;19;20423;-69
2022/11/18 04:49:34;;;;;;;48.55;29.65;;;;;;;0.63;93.19;99788.09;7397438;19;20018;-68
2022/11/18 04:52:05;;;;;;;47.85;28.65;;;;;;;0.63;93.23;99798.41;7396729;19;20015;-68
2022/11/18 04:54:34;;;;;;;51.65;30.73;;;;;;;0.63;93.58;99801.00;7395383;19;20014;-68
2022/11/18 04:57:03;;;;;;;49.58;28.30;;;;;;;0.63;93.54;99792.38;7396956;19;20034;-68
2022/11/18 04:59:31;;;;;;;47.55;28.70;;;;;;;0.62;93.33;99795.81;7396357;19;20519;-68
2022/11/18 05:02:01;;;;;;;48.08;27.73;;;;;;;0.62;93.31;99798.38;7395509;19;20015;-68
2022/11/18 05:04:32;;;;;;;48.97;30.25;;;;;;;0.59;93.63;99798.38;7395200;19;20018;-68
2022/11/18 05:07:02;;;;;;;48.50;28.40;;;;;;;0.59;93.72;99795.81;7397003;19;20093;-68
2022/11/18 05:09:33;;;;;;;48.28;29.10;;;;;;;0.57;93.43;99805.25;7396004;19;20082;-68
2022/11/18 05:14:43;;;;;;;48.20;28.85;;;;;;;0.55;93.63;99809.56;7395015;19;20015;-68
2022/11/18 05:17:19;;;;;;;44.03;26.23;;;;;;;0.53;93.79;99811.28;7394539;19;20018;-69
2022/11/18 05:19:48;;;;;;;48.63;28.23;;;;;;;0.53;93.87;99811.28;7395890;19;20019;-68
2022/11/18 05:22:17;;;;;;;48.22;28.25;;;;;;;0.52;94.31;99809.53;7395481;19;20031;-68
2022/11/18 05:24:49;;;;;;;47.30;26.73;;;;;;;0.49;94.06;99818.13;7394119;19;20018;-68
2022/11/18 05:27:17;;;;;;;47.15;26.73;;;;;;;0.48;94.36;99812.13;7393630;19;20483;-68
2022/11/18 05:29:46;;;;;;;43.85;26.23;;;;;;;0.45;94.30;99819.84;7396186;19;20031;-68
2022/11/18 05:32:14;;;;;;;45.35;26.45;;;;;;;0.45;94.17;99825.00;7395035;19;20486;-68
2022/11/18 05:34:50;;;;;;;45.08;25.85;;;;;;;0.44;94.46;99828.47;7393619;19;20035;-69
2022/11/18 05:37:19;;;;;;;39.95;24.25;;;;;;;0.39;94.37;99825.00;7395525;19;20019;-68
2022/11/18 05:39:50;;;;;;;41.47;25.45;;;;;;;0.37;94.34;99829.28;7392345;19;20023;-68
2022/11/18 05:44:59;;;;;;;43.65;25.70;;;;;;;0.32;94.19;99851.59;7393170;19;20164;-68
2022/11/18 05:47:58;;;;;;;44.17;26.15;;;;;;;0.30;94.61;99848.16;7394770;19;20538;-67
2022/11/18 05:50:17;;;;;;;38.58;23.30;;;;;;;0.27;94.46;99850.72;7394488;19;20024;-68
2022/11/18 05:52:46;;;;;;;44.28;25.55;;;;;;;0.23;94.42;99855.00;7392869;19;20015;-69
2022/11/18 05:55:18;;;;;;;39.28;22.88;;;;;;;0.17;94.51;99852.38;7394760;19;20082;-68
2022/11/18 05:57:47;;;;;;;36.97;23.02;;;;;;;0.14;94.61;99855.81;7395339;19;20130;-68
2022/11/18 06:00:17;;;;;;;35.50;23.00;;;;;;;0.11;94.38;99858.34;7393943;19;20035;-69
2022/11/18 06:02:49;;;;;;;40.22;23.48;;;;;;;0.06;94.71;99859.19;7393042;19;20023;-69
2022/11/18 06:05:20;;;;;;;40.30;23.75;;;;;;;0.06;94.60;99862.59;7392436;19;20019;-70
2022/11/18 06:07:48;;;;;;;42.35;25.77;;;;;;;0.05;94.88;99866.06;7393090;19;20038;-68
2022/11/18 06:10:23;;;;;;;41.30;25.63;;;;;;;0.02;95.35;99866.03;7393906;19;20131;-69
2022/11/18 06:12:56;;;;;;;44.17;26.58;;;;;;;-0.03;94.86;99865.13;7395027;19;20023;-70
2022/11/18 06:15:27;;;;;;;46.25;27.60;;;;;;;-0.04;94.96;99868.56;7393519;19;20018;-67
2022/11/18 06:18:00;;;;;;;45.17;26.98;;;;;;;-0.06;95.12;99868.56;7393024;19;20510;-69
2022/11/18 06:20:29;;;;;;;46.35;27.75;;;;;;;-0.06;95.75;99875.44;7391026;19;20431;-64
2022/11/18 06:23:00;;;;;;;47.15;27.63;;;;;;;-0.06;95.34;99872.84;7393297;19;20042;-66
2022/11/18 06:25:32;;;;;;;46.90;28.00;;;;;;;-0.08;95.44;99870.25;7397506;19;20346;-66
2022/11/18 06:28:03;;;;;;;43.17;27.30;;;;;;;-0.11;95.29;99875.38;7399207;19;20018;-66
2022/11/18 06:30:32;;;;;;;45.40;27.27;;;;;;;-0.17;95.28;99876.19;7401821;19;20021;-66
2022/11/18 06:33:00;;;;;;;45.38;27.58;;;;;;;-0.14;95.56;99885.66;7398202;19;20019;-67
2022/11/18 06:35:29;;;;;;;47.78;28.23;;;;;;;-0.18;95.39;99879.66;7399316;19;20018;-67
2022/11/18 06:37:57;;;;;;;48.97;29.27;;;;;;;-0.18;97.09;99882.22;7401594;19;20019;-67
2022/11/18 06:40:26;;;;;;;46.30;28.95;;;;;;;-0.17;96.17;99877.91;7398679;19;20027;-67
2022/11/18 06:45:38;;;;;;;48.20;29.70;;;;;;;-0.22;95.74;99889.91;7401640;19;20011;-67
2022/11/18 06:48:04;;;;;;;48.67;29.02;;;;;;;-0.24;95.91;99902.78;7401036;19;20101;-67
2022/11/18 06:50:33;;;;;;;46.20;29.17;;;;;;;-0.26;95.68;99906.22;7401180;19;20090;-67
2022/11/18 06:53:02;;;;;;;48.03;30.30;;;;;;;-0.29;95.58;99917.34;7400463;19;20019;-67
2022/11/18 06:55:31;;;;;;;50.53;30.42;;;;;;;-0.30;95.85;99915.63;7401149;19;20024;-67
2022/11/18 06:58:02;;;;;;;49.85;29.45;;;;;;;-0.34;95.64;99919.88;7398294;19;20026;-67
2022/11/18 07:00:30;;;;;;;48.33;29.52;;;;;;;-0.35;95.30;99922.47;7401492;19;20018;-68
2022/11/18 07:02:59;;;;;;;48.22;29.38;;;;;;;-0.36;95.51;99931.88;7399507;19;20514;-67
2022/11/18 07:05:27;;;;;;;50.40;29.85;;;;;;;-0.38;95.45;99930.13;7398037;19;20035;-67
2022/11/18 07:07:56;;;;;;;51.05;31.33;;;;;;;-0.40;95.57;99934.44;7399612;19;20027;-67
2022/11/18 07:10:24;;;;;;;50.55;30.63;;;;;;;-0.41;95.42;99936.13;7397464;19;20489;-67
2022/11/18 07:12:53;;;;;;;49.92;30.80;;;;;;;-0.43;95.52;99927.53;7399749;19;20485;-68
2022/11/18 07:15:24;;;;;;;50.42;31.92;;;;;;;-0.45;95.12;99939.53;7397422;19;20034;-67
2022/11/18 07:17:52;;;;;;;51.80;30.98;;;;;;;-0.46;95.13;99940.38;7398100;19;20359;-69
2022/11/18 07:20:21;;;;;;;53.80;32.90;;;;;;;-0.44;95.77;99942.97;7397035;19;20015;-69
2022/11/18 07:22:53;;;;;;;54.83;32.47;;;;;;;-0.42;95.38;99946.44;7396306;19;20006;-68
2022/11/18 07:25:22;;;;;;;52.63;33.00;;;;;;;-0.44;94.55;99946.41;7397525;19;20032;-67
2022/11/18 07:27:50;;;;;;;45.55;29.35;;;;;;;-0.46;94.20;99949.84;7399072;19;20336;-67
2022/11/18 07:30:20;;;;;;;49.97;31.42;;;;;;;-0.47;94.32;99958.41;7397106;19;20041;-69
2022/11/18 07:32:51;;;;;;;50.47;31.38;;;;;;;-0.47;94.60;99964.41;7398353;19;20018;-67
2022/11/18 07:35:20;;;;;;;54.95;33.53;;;;;;;-0.50;94.63;99952.34;7400220;19;20035;-67
2022/11/18 07:37:48;;;;;;;51.83;31.27;;;;;;;-0.49;94.52;99953.25;7399143;19;20010;-70
2022/11/18 07:40:17;;;;;;;51.65;31.48;;;;;;;-0.47;94.04;99956.69;7396195;19;20015;-68
2022/11/18 07:42:46;;;;;;;53.72;32.55;;;;;;;-0.48;93.54;99959.25;7397693;19;20015;-68
2022/11/18 07:45:14;;;;;;;52.30;31.88;;;;;;;-0.50;93.85;99961.81;7396631;19;20035;-68
2022/11/18 07:47:43;;;;;;;67.85;38.38;;;;;;;-0.50;93.72;99957.50;7396178;19;20482;-68
2022/11/18 07:50:14;;;;;;;56.20;33.10;;;;;;;-0.48;94.34;99977.28;7396075;19;20022;-68
2022/11/18 07:52:42;;;;;;;53.85;33.05;;;;;;;-0.49;93.30;99971.28;7398843;19;20036;-69
2022/11/18 07:55:11;;;;;;;54.78;33.20;;;;;;;-0.51;93.54;99973.81;7396411;19;20035;-69
2022/11/18 07:57:40;;;;;;;56.40;35.03;;;;;;;-0.51;93.52;99970.38;7398205;19;20372;-68
2022/11/18 08:00:10;;;;;;;57.00;33.88;;;;;;;-0.51;93.60;99973.81;7398759;19;20023;-67
2022/11/18 08:02:38;;;;;;;50.78;30.60;;;;;;;-0.51;93.26;99980.69;7396285;19;20032;-67
2022/11/18 08:05:08;;;;;;;55.60;33.22;;;;;;;-0.52;92.96;99990.16;7395744;19;20372;-68
2022/11/18 08:07:39;;;;;;;54.63;32.97;;;;;;;-0.54;93.40;99994.41;7397609;19;20011;-68
2022/11/18 08:10:08;;;;;;;55.90;33.22;;;;;;;-0.53;93.72;99988.41;7398111;19;20104;-68
2022/11/18 08:12:37;;;;;;;55.30;33.58;;;;;;;-0.53;93.41;99996.16;7395674;19;20018;-69
2022/11/18 08:15:06;;;;;;;56.17;34.67;;;;;;;-0.52;93.70;99997.88;7397794;19;20582;-69
2022/11/18 08:17:35;;;;;;;57.42;34.08;;;;;;;-0.51;93.50;100006.47;7397989;19;20363;-69
2022/11/18 08:20:03;;;;;;;59.67;34.70;;;;;;;-0.51;93.49;100009.91;7397734;19;20018;-68
2022/11/18 08:22:32;;;;;;;59.50;34.42;;;;;;;-0.51;93.39;100011.63;7397470;19;20078;-69
2022/11/18 08:25:03;;;;;;;61.50;34.50;;;;;;;-0.52;93.46;100007.31;7395472;19;20022;-69
2022/11/18 08:27:32;;;;;;;66.00;35.45;;;;;;;-0.52;93.80;100012.47;7397589;19;20078;-69
2022/11/18 08:30:01;;;;;;;62.88;35.95;;;;;;;-0.53;94.14;100003.88;7395180;19;20022;-67
2022/11/18 08:32:29;;;;;;;64.35;36.10;;;;;;;-0.43;95.26;100006.56;7397560;19;20039;-66
2022/11/18 08:34:58;;;;;;;66.40;36.85;;;;;;;-0.36;95.02;100014.38;7395069;19;20019;-70
2022/11/18 08:37:26;;;;;;;61.28;34.65;;;;;;;-0.34;94.25;100017.84;7395421;19;20019;-69
2022/11/18 08:39:55;;;;;;;60.72;34.08;;;;;;;-0.33;93.82;100021.25;7395233;19;20015;-69
2022/11/18 08:42:26;;;;;;;58.47;34.40;;;;;;;-0.34;94.04;100024.72;7397012;19;20489;-69
2022/11/18 08:44:54;;;;;;;60.35;33.10;;;;;;;-0.37;93.45;100016.94;7392230;19;20019;-69
2022/11/18 08:47:23;;;;;;;54.05;31.98;;;;;;;-0.41;93.54;100016.03;7397079;19;20018;-69
2022/11/18 08:49:51;;;;;;;57.33;32.88;;;;;;;-0.44;93.66;100023.75;7396582;19;20392;-69
2022/11/18 08:52:26;;;;;;;57.75;34.53;;;;;;;-0.46;93.50;100028.00;7396905;19;20014;-69
2022/11/18 08:54:55;;;;;;;58.65;33.67;;;;;;;-0.47;93.63;100035.72;7395797;19;20023;-69
2022/11/18 08:57:26;;;;;;;57.30;33.72;;;;;;;-0.50;93.86;100033.97;7396912;19;20094;-70
2022/11/18 08:59:54;;;;;;;53.35;32.17;;;;;;;-0.53;93.69;100026.19;7396668;19;20077;-69
2022/11/18 09:02:25;;;;;;;60.72;34.42;;;;;;;-0.56;93.88;100039.06;7396510;19;20032;-69
2022/11/18 09:04:54;;;;;;;60.42;34.28;;;;;;;-0.58;93.82;100038.16;7395442;19;20031;-68
2022/11/18 09:07:23;;;;;;;59.97;34.03;;;;;;;-0.60;93.74;100050.16;7396400;19;20082;-67
2022/11/18 09:09:52;;;;;;;56.22;33.63;;;;;;;-0.62;93.99;100054.44;7396300;19;20078;-68
2022/11/18 09:12:20;;;;;;;57.42;33.67;;;;;;;-0.62;94.04;100059.59;7396364;19;20039;-68
2022/11/18 09:14:51;;;;;;;59.78;34.10;;;;;;;-0.63;94.11;100069.03;7394450;19;20066;-68
2022/11/18 09:17:20;;;;;;;63.15;35.00;;;;;;;-0.62;94.30;100072.47;7395649;19;20031;-68
2022/11/18 09:19:48;;;;;;;54.80;32.20;;;;;;;-0.64;93.30;100069.88;7394310;19;20416;-66
2022/11/18 09:22:17;;;;;;;54.65;31.77;;;;;;;-0.67;93.22;100070.69;7393955;19;20022;-67
2022/11/18 09:24:45;;;;;;;55.50;30.75;;;;;;;-0.68;93.56;100073.25;7393750;19;20031;-68
2022/11/18 09:27:14;;;;;;;57.63;32.95;;;;;;;-0.68;93.69;100081.84;7395746;19;20015;-68
2022/11/18 09:29:42;;;;;;;56.70;33.03;;;;;;;-0.67;93.66;100077.53;7395742;19;20010;-67
2022/11/18 09:32:14;;;;;;;55.38;32.15;;;;;;;-0.69;93.02;100087.84;7393869;19;20022;-67
2022/11/18 09:34:42;;;;;;;55.35;31.65;;;;;;;-0.70;92.95;100095.56;7393582;19;20482;-68
2022/11/18 09:37:11;;;;;;;55.42;32.92;;;;;;;-0.72;91.80;100086.91;7394719;19;20078;-68
2022/11/18 09:39:39;;;;;;;57.70;33.05;;;;;;;-0.77;92.06;100094.63;7393625;19;20087;-67
2022/11/18 09:42:22;;;;;;;54.50;32.42;;;;;;;-0.73;92.15;100100.69;7395632;19;20014;-68
2022/11/18 09:45:04;;;;;;;55.72;33.67;;;;;;;-0.72;92.37;100108.41;7393319;19;20022;-69
2022/11/18 09:47:37;;;;;;;53.65;32.72;;;;;;;-0.71;91.97;100104.13;7395844;19;20014;-68
2022/11/18 09:50:08;;;;;;;56.08;33.38;;;;;;;-0.69;91.80;100105.88;7396047;19;20023;-68
2022/11/18 09:52:42;;;;;;;53.92;31.63;;;;;;;-0.69;91.77;100112.75;7395510;19;20011;-67
2022/11/18 09:55:15;;;;;;;54.13;33.30;;;;;;;-0.68;92.13;100110.19;7395149;19;20098;-69
2022/11/18 09:57:48;;;;;;;80.68;45.97;;;;;;;-0.65;91.99;100114.50;7394923;19;20015;-69
2022/11/18 10:00:18;;;;;;;54.47;33.03;;;;;;;-0.63;91.75;100107.69;7394389;19;20078;-69
2022/11/18 10:02:59;;;;;;;56.85;33.10;;;;;;;-0.62;91.95;100124.88;7394825;19;20039;-69
2022/11/18 10:05:29;;;;;;;56.38;33.75;;;;;;;-0.62;91.80;100124.88;7393929;19;20019;-69
2022/11/18 10:08:07;;;;;;;55.05;32.92;;;;;;;-0.61;91.87;100124.00;7394892;19;20018;-68
2022/11/18 10:10:47;;;;;;;54.03;33.13;;;;;;;-0.60;91.45;100114.59;7395080;19;20033;-68
2022/11/18 10:13:25;;;;;;;56.42;32.92;;;;;;;-0.59;91.75;100130.06;7392338;19;20517;-68
2022/11/18 10:16:02;;;;;;;53.33;30.85;;;;;;;-0.59;91.28;100129.22;7394154;19;20412;-68
2022/11/18 10:18:44;;;;;;;52.03;31.70;;;;;;;-0.58;90.90;100141.22;7394176;19;20410;-68
2022/11/18 10:21:25;;;;;;;43.50;28.92;;;;;;;-0.60;91.17;100141.22;7394816;19;20022;-67
2022/11/18 10:23:56;;;;;;;47.60;29.38;;;;;;;-0.60;91.48;100141.22;7393495;19;20035;-68
2022/11/18 10:26:39;;;;;;;49.00;29.83;;;;;;;-0.57;91.26;100142.97;7391849;19;20078;-68
2022/11/18 10:29:09;;;;;;;46.88;29.90;;;;;;;-0.57;90.49;100146.41;7393586;19;20022;-68
2022/11/18 10:31:39;;;;;;;45.67;28.00;;;;;;;-0.57;90.45;100154.16;7394084;19;20015;-68
2022/11/18 10:34:12;;;;;;;40.72;27.13;;;;;;;-0.59;90.14;100152.41;7391375;19;20429;-67
2022/11/18 10:36:42;;;;;;;45.88;28.95;;;;;;;-0.57;90.46;100159.31;7391432;19;20486;-69
2022/11/18 10:39:13;;;;;;;43.67;27.70;;;;;;;-0.57;90.67;100154.16;7390961;19;20470;-68
2022/11/18 10:41:47;;;;;;;38.38;24.95;;;;;;;-0.57;89.43;100164.47;7393691;19;20027;-68
2022/11/18 10:44:41;;;;;;;43.60;28.20;;;;;;;-0.58;89.60;100160.16;7391782;19;20018;-68
2022/11/18 10:47:29;;;;;;;44.15;27.58;;;;;;;-0.59;88.84;100166.13;7393918;19;20018;-69
2022/11/18 10:50:02;;;;;;;37.63;25.25;;;;;;;-0.58;89.60;100161.84;7392313;19;20498;-68
2022/11/18 10:52:31;;;;;;;37.47;24.52;;;;;;;-0.58;88.41;100165.28;7393672;19;20018;-69
2022/11/18 10:55:29;;;;;;;37.05;25.40;;;;;;;-0.63;87.03;100168.63;7390825;19;20044;-69
2022/11/18 10:58:01;;;;;;;36.40;23.58;;;;;;;-0.66;87.10;100164.31;7391230;19;20517;-69
2022/11/18 11:00:43;;;;;;;34.30;23.55;;;;;;;-0.70;87.44;100171.13;7392706;19;20039;-68
2022/11/18 11:03:37;;;;;;;35.55;23.23;;;;;;;-0.72;86.30;100169.34;7391091;19;20015;-69
2022/11/18 11:06:39;;;;;;;33.07;21.90;;;;;;;-0.74;85.87;100178.78;7391439;19;20019;-69
2022/11/18 11:09:10;;;;;;;36.90;23.50;;;;;;;-0.74;87.72;100178.78;7396455;19;20098;-67
2022/11/18 11:11:42;;;;;;;35.60;23.52;;;;;;;-0.73;88.26;100178.81;7400596;19;20038;-69
2022/11/18 11:14:23;;;;;;;33.53;24.05;;;;;;;-0.71;88.58;100182.28;7397979;19;20538;-69
2022/11/18 11:16:59;;;;;;;34.95;22.92;;;;;;;-0.70;86.74;100185.72;7400560;19;20042;-68
2022/11/18 11:19:34;;;;;;;35.95;23.67;;;;;;;-0.72;85.91;100188.28;7398884;19;20011;-68
2022/11/18 11:22:09;;;;;;;34.92;24.13;;;;;;;-0.74;85.86;100184.81;7396648;19;20360;-69
2022/11/18 11:24:39;;;;;;;35.33;23.73;;;;;;;-0.74;86.06;100194.25;7397684;19;20046;-69
2022/11/18 11:27:35;;;;;;;31.92;22.95;;;;;;;-0.77;85.25;100189.03;7399190;19;20014;-69
2022/11/18 11:30:17;;;;;;;34.92;24.27;;;;;;;-0.76;86.45;100196.78;7397518;19;20014;-70
2022/11/18 11:33:21;;;;;;;31.58;23.10;;;;;;;-0.75;83.92;100198.53;7398937;19;20114;-69
2022/11/18 11:36:02;;;;;;;36.25;23.60;;;;;;;-0.74;85.23;100197.69;7399528;19;20370;-69
2022/11/18 11:38:47;;;;;;;32.28;22.38;;;;;;;-0.73;84.81;100201.16;7396671;19;20355;-68
2022/11/18 11:41:23;;;;;;;34.88;24.00;;;;;;;-0.73;82.83;100202.00;7397465;19;20034;-68
2022/11/18 11:44:19;;;;;;;35.30;23.27;;;;;;;-0.76;82.86;100203.66;7398218;19;20018;-68
2022/11/18 11:49:53;;;;;;;32.92;23.23;;;;;;;-0.76;83.87;100195.94;7399233;19;20014;-69
2022/11/18 11:52:33;;;;;;;32.42;22.70;;;;;;;-0.77;84.33;100213.09;7398590;19;20517;-68
2022/11/18 11:55:17;;;;;;;32.60;22.40;;;;;;;-0.74;84.92;100209.72;7396160;19;20019;-69
2022/11/18 11:58:02;;;;;;;36.22;24.08;;;;;;;-0.72;83.39;100213.16;7396933;19;20027;-70
2022/11/18 12:00:35;;;;;;;34.80;22.27;;;;;;;-0.72;84.61;100211.47;7399277;19;20018;-70
2022/11/18 12:03:17;;;;;;;33.97;22.45;;;;;;;-0.70;84.53;100209.75;7397128;19;20018;-70